HST,Max TemperatureF,Mean TemperatureF,Min TemperatureF,Max Dew PointF,MeanDew PointF,Min DewpointF,Max Humidity, Mean Humidity, Min Humidity, Max Sea Level PressureIn, Mean Sea Level PressureIn, Min Sea Level PressureIn, Max VisibilityMiles, Mean VisibilityMiles, Min VisibilityMiles, Max Wind SpeedMPH, Mean Wind SpeedMPH, Max Gust SpeedMPH,PrecipitationIn, CloudCover, Events, WindDirDegrees
2013-8-1,86,78,69,68,66,63,90,69,48,30.12,30.08,30.03,10,10,7,12,5,17,0.12,5,Rain,292
2013-8-2,84,77,69,68,66,63,90,73,55,30.07,30.04,30.00,10,10,10,16,7,20,0.10,6,,236
2013-8-3,85,77,69,69,67,64,90,74,58,30.06,30.03,29.99,10,9,2,13,6,16,0.03,6,Rain,262
2013-8-4,82,76,70,72,69,66,90,80,69,30.05,30.01,29.97,10,8,2,14,5,15,0.35,7,Rain,260
2013-8-5,83,76,69,72,68,66,93,78,62,30.06,30.02,29.97,10,8,2,13,5,16,0.24,6,Rain,228
2013-8-6,81,76,71,70,67,65,87,75,62,30.05,30.02,29.99,10,10,10,9,6,10,0.03,6,Rain,112
2013-8-7,84,77,69,68,66,62,97,73,48,30.11,30.03,29.99,10,10,10,13,7,14,0.00,5,Rain,321
2013-8-8,82,76,70,70,66,64,90,73,55,30.08,30.04,30.00,10,10,3,8,6,,0.00,5,Rain,288
2013-8-9,81,75,68,74,69,57,88,75,62,30.07,30.00,29.94,10,8,2,13,7,,0.03,5,Rain,7
2013-8-10,84,79,74,73,72,71,94,82,69,30.06,30.00,29.97,10,9,2,15,8,,1.46,7,Rain,95
2013-8-11,84,79,74,72,70,65,93,76,58,30.07,30.03,30.00,10,10,6,14,6,,0.12,6,Rain,103
2013-8-12,82,77,72,71,69,66,93,78,62,30.08,30.04,30.00,10,10,10,10,6,,0.07,7,Rain,34
2013-8-13,80,76,71,70,68,64,87,73,58,30.06,30.01,29.92,10,10,7,8,5,,0.10,6,Rain,205
2013-8-14,82,75,68,71,68,63,90,74,58,30.04,30.00,29.96,10,10,7,12,5,,0.02,5,,96
2013-8-15,82,75,68,70,66,60,90,73,55,30.05,30.01,29.97,10,10,8,12,7,,0.00,5,Rain,285
2013-8-16,80,74,68,72,69,60,97,82,66,30.06,30.01,29.98,10,8,2,13,7,,0.00,7,Rain,215
2013-8-17,82,77,72,70,66,62,90,69,47,30.06,30.02,29.96,10,10,10,12,5,,0.00,5,,89
2013-8-18,84,76,68,68,62,58,79,61,43,30.05,29.97,28.97,10,10,10,12,6,,0.00,3,,253
2013-8-19,82,75,68,72,64,48,70,59,47,30.02,29.99,29.95,10,9,2,14,7,,0.00,5,Rain,149
2013-8-20,83,77,71,70,68,62,93,71,48,30.01,29.97,29.93,10,8,2,10,4,,0.09,6,Rain,187
2013-8-21,84,77,70,72,67,63,90,73,55,29.99,29.95,29.91,10,10,10,13,5,,0.01,5,,148
2013-8-22,84,79,73,70,68,65,87,69,51,30.00,29.96,29.92,10,10,10,12,6,,0.05,6,Rain,197
2013-8-23,82,77,72,70,66,64,90,74,58,31.38,30.02,29.94,10,10,10,10,4,10,0.00,5,Rain,214
2013-8-24,83,76,69,70,64,57,79,69,58,30.05,30.01,29.97,10,10,10,15,7,15,0.00,5,,112
2013-8-25,82,76,70,72,68,58,93,77,61,30.11,30.05,30.00,10,10,10,16,7,16,0.00,6,Rain,119
2013-8-26,84,78,72,69,66,62,87,69,51,30.13,30.09,30.05,10,10,10,14,7,14,0.00,5,Rain,188
2013-8-27,84,76,68,68,64,59,73,62,51,30.11,30.06,29.99,10,10,10,13,6,13,0.00,3,Rain,325
2013-8-28,83,76,69,70,65,57,73,67,60,30.01,29.96,29.91,10,10,10,16,8,16,0.00,4,Rain,307
2013-8-29,84,77,70,69,67,63,93,74,55,29.99,29.94,29.90,10,10,10,14,6,18,0.00,4,Rain,164
2013-8-30,83,75,66,71,66,60,81,68,55,30.05,29.99,29.95,10,10,10,18,8,25,T,4,Rain,178
2013-8-31,82,75,68,69,67,63,100,78,55,30.07,30.03,29.97,10,10,2,14,7,18,0.17,6,Rain,275